Sandvig, Denmark
Current Conditions -  °F | °C
As of 6:20 AM on Tuesday 21 Oct 2014 (Local Time) from EKRN Reporting Station
Broken Clouds Broken Clouds  
Wind Chill: 50°   Ceiling: 2700
Heat Index: 50°   Visibility: 4mi
Dew Point: 50°   Wind: 2mph
Humidity: 100%   Direction: 360°N
Pressure: 29.68"   Gusts: NA
Location:  55.28°N, 14.78°E
Report Text: EKRN 210420Z AUTO 36002KT 6000NDV BKN027/// BKN056///10/10 Q1005
Loading
Personal Weather Stations






























Interactive Weather Map
Tropical Storm Tracking
New forecast layout! Learn more

10-Day Weather Forecast

Advertisements
Track Severe Weather on mobile